createdAt,value
2022-12-25T00:01:32.008Z,11.52
2022-12-25T00:03:58.731Z,11.10
2022-12-25T00:06:25.935Z,11.82
2022-12-25T00:08:52.270Z,10.68
2022-12-25T00:11:19.791Z,10.43
2022-12-25T00:13:47.156Z,11.50
2022-12-25T00:16:17.798Z,10.88
2022-12-25T00:18:44.187Z,10.45
2022-12-25T00:21:10.724Z,11.05
2022-12-25T00:23:37.063Z,11.57
2022-12-25T00:26:10.575Z,11.32
2022-12-25T00:28:36.998Z,10.77
2022-12-25T00:31:08.336Z,11.73
2022-12-25T00:33:39.133Z,10.77
2022-12-25T00:36:07.292Z,11.23
2022-12-25T00:38:35.438Z,9.85
2022-12-25T00:41:06.399Z,10.85
2022-12-25T00:43:32.915Z,11.32
2022-12-25T00:46:01.749Z,11.07
2022-12-25T00:48:29.179Z,10.55
2022-12-25T00:50:57.114Z,10.50
2022-12-25T00:53:24.773Z,10.35
2022-12-25T00:55:56.458Z,10.50
2022-12-25T00:58:23.797Z,9.65
2022-12-25T01:00:50.386Z,9.75
2022-12-25T01:03:17.577Z,9.63
2022-12-25T01:05:45.216Z,9.23
2022-12-25T01:08:11.597Z,9.57
2022-12-25T01:10:37.931Z,9.30
2022-12-25T01:13:04.238Z,10.05
2022-12-25T01:15:30.627Z,10.05
2022-12-25T01:17:56.969Z,9.07
2022-12-25T01:20:23.311Z,9.20
2022-12-25T01:22:49.631Z,8.25
2022-12-25T01:25:15.970Z,9.43
2022-12-25T01:27:42.502Z,9.25
2022-12-25T01:30:09.476Z,9.55
2022-12-25T01:32:35.775Z,9.18
2022-12-25T01:35:02.144Z,8.90
2022-12-25T01:37:28.513Z,8.93
2022-12-25T01:39:54.879Z,8.93
2022-12-25T01:42:23.699Z,10.32
2022-12-25T01:44:50.047Z,8.90
2022-12-25T01:47:18.260Z,8.95
2022-12-25T01:52:25.025Z,8.90
2022-12-25T01:54:57.817Z,8.60
2022-12-25T01:57:28.964Z,10.35
2022-12-25T01:59:57.546Z,9.02
2022-12-25T02:02:24.610Z,8.93
2022-12-25T02:04:57.541Z,8.57
2022-12-25T02:07:34.662Z,8.05
2022-12-25T02:10:01.140Z,9.43
2022-12-25T02:12:32.665Z,9.13
2022-12-25T02:15:06.430Z,8.13
2022-12-25T02:17:58.195Z,8.27
2022-12-25T02:20:55.882Z,6.88
2022-12-25T02:23:40.657Z,8.02
2022-12-25T02:26:46.153Z,8.13
2022-12-25T02:29:54.719Z,7.90
2022-12-25T02:32:29.562Z,7.20
2022-12-25T02:35:05.320Z,8.10
2022-12-25T02:37:40.975Z,7.63
2022-12-25T02:40:25.350Z,6.25
2022-12-25T02:43:20.705Z,7.82
2022-12-25T02:46:13.739Z,6.82
2022-12-25T02:49:27.972Z,6.53
2022-12-25T02:52:21.444Z,6.50
2022-12-25T02:58:02.727Z,5.63
2022-12-25T03:00:50.298Z,6.68
2022-12-25T03:03:36.936Z,5.53
2022-12-25T03:06:23.718Z,7.22
2022-12-25T03:09:17.229Z,6.70
2022-12-25T03:14:30.762Z,5.00
2022-12-25T03:16:59.489Z,5.80
2022-12-25T03:19:48.734Z,5.72
2022-12-25T03:22:55.010Z,5.65
2022-12-25T03:25:42.210Z,5.97
2022-12-25T03:28:08.782Z,5.70
2022-12-25T03:31:12.314Z,6.22
2022-12-25T03:37:36.168Z,5.10
2022-12-25T03:40:50.880Z,5.35
2022-12-25T03:43:46.818Z,5.32
2022-12-25T03:46:35.656Z,6.30
2022-12-25T03:49:38.165Z,5.50
2022-12-25T03:52:26.709Z,6.38
2022-12-25T03:55:14.709Z,5.30
2022-12-25T03:57:59.838Z,5.57
2022-12-25T04:00:44.689Z,4.57
2022-12-25T04:03:29.452Z,4.22
2022-12-25T04:06:14.299Z,4.57
2022-12-25T04:08:59.108Z,4.80
2022-12-25T04:11:45.144Z,5.20
2022-12-25T04:14:30.091Z,4.68
2022-12-25T04:17:14.881Z,4.88
2022-12-25T04:19:59.832Z,4.40
2022-12-25T04:22:44.502Z,4.68
2022-12-25T04:25:29.278Z,4.88
2022-12-25T04:28:37.201Z,4.88
2022-12-25T04:31:25.345Z,5.22
2022-12-25T04:34:25.240Z,4.72
2022-12-25T04:36:51.789Z,4.70
2022-12-25T04:39:20.718Z,4.97
2022-12-25T04:41:47.336Z,5.57
2022-12-25T04:44:13.919Z,4.68
2022-12-25T04:46:40.552Z,4.90
2022-12-25T04:49:07.099Z,5.68
2022-12-25T04:51:33.620Z,4.90
2022-12-25T04:54:00.231Z,4.50
2022-12-25T04:56:29.322Z,4.95
2022-12-25T04:59:06.523Z,5.72
2022-12-25T05:01:33.378Z,4.97
2022-12-25T05:04:03.445Z,4.85
2022-12-25T05:06:29.991Z,5.15
2022-12-25T05:08:56.480Z,5.15
2022-12-25T05:11:23.014Z,5.20
2022-12-25T05:13:51.792Z,6.45
2022-12-25T05:16:20.029Z,5.60
2022-12-25T05:18:55.613Z,6.10
2022-12-25T05:21:22.353Z,5.15
2022-12-25T05:23:53.142Z,6.68
2022-12-25T05:26:24.314Z,5.35
2022-12-25T05:28:51.071Z,5.72
2022-12-25T05:31:18.346Z,5.72
2022-12-25T05:33:45.004Z,5.65
2022-12-25T05:36:12.872Z,6.10
2022-12-25T05:38:39.624Z,5.82
2022-12-25T05:41:06.421Z,5.70
2022-12-25T05:43:33.069Z,5.80
2022-12-25T05:46:05.111Z,5.60
2022-12-25T05:48:32.364Z,6.37
2022-12-25T05:51:04.261Z,5.35
2022-12-25T05:53:30.762Z,6.35
2022-12-25T05:56:02.015Z,4.90
2022-12-25T05:58:29.082Z,5.45
2022-12-25T06:00:56.006Z,5.82
2022-12-25T06:03:23.326Z,5.95
2022-12-25T06:05:50.195Z,6.70
2022-12-25T06:08:16.850Z,5.43
2022-12-25T06:10:43.478Z,6.07
2022-12-25T06:13:10.207Z,6.05
2022-12-25T06:15:43.176Z,6.57
2022-12-25T06:18:10.964Z,6.65
2022-12-25T06:20:40.746Z,5.53
2022-12-25T06:23:07.299Z,5.22
2022-12-25T06:25:33.781Z,6.15
2022-12-25T06:28:00.445Z,5.75
2022-12-25T06:30:27.039Z,6.13
2022-12-25T06:33:02.886Z,5.45
2022-12-25T06:35:32.033Z,5.88
2022-12-25T06:38:15.675Z,6.43
2022-12-25T06:40:54.219Z,6.18
2022-12-25T06:43:23.754Z,5.90
2022-12-25T06:45:53.087Z,5.97
2022-12-25T06:48:20.995Z,6.57
2022-12-25T06:50:50.540Z,5.55
2022-12-25T06:53:40.395Z,5.25
2022-12-25T06:56:19.105Z,6.30
2022-12-25T06:58:51.534Z,5.47
2022-12-25T07:30:31.318Z,3.55
2022-12-25T07:32:57.952Z,4.43
2022-12-25T07:35:24.519Z,4.70
2022-12-25T07:37:51.069Z,4.45
2022-12-25T07:40:17.839Z,4.03
2022-12-25T07:42:44.327Z,4.15
2022-12-25T07:45:11.158Z,4.00
2022-12-25T07:47:37.661Z,3.70
2022-12-25T07:50:04.603Z,3.65
2022-12-25T07:52:30.925Z,3.78
2022-12-25T07:54:57.228Z,3.92
2022-12-25T07:57:23.533Z,3.80
2022-12-25T07:59:49.862Z,3.95
2022-12-25T08:02:16.572Z,3.63
2022-12-25T08:04:43.052Z,3.42
2022-12-25T08:07:09.379Z,3.67
2022-12-25T08:09:35.728Z,3.58
2022-12-25T08:12:02.039Z,3.10
2022-12-25T08:14:29.369Z,3.22
2022-12-25T08:16:55.713Z,3.38
2022-12-25T08:19:22.009Z,3.28
2022-12-25T08:21:48.311Z,3.90
2022-12-25T08:24:15.163Z,3.80
2022-12-25T08:26:41.566Z,2.95
2022-12-25T08:29:07.936Z,3.22
2022-12-25T08:31:36.378Z,3.20
2022-12-25T08:34:04.803Z,3.47
2022-12-25T08:36:31.332Z,3.00
2022-12-25T08:39:02.562Z,3.28
2022-12-25T08:41:29.751Z,3.40
2022-12-25T08:43:56.107Z,2.88
2022-12-25T08:46:22.879Z,3.15
2022-12-25T08:48:49.916Z,3.20
2022-12-25T08:51:20.240Z,3.42
2022-12-25T08:53:48.535Z,3.00
2022-12-25T08:56:15.753Z,3.38
2022-12-25T08:58:42.812Z,3.08
2022-12-25T09:01:09.375Z,2.90
2022-12-25T09:03:35.829Z,3.38
2022-12-25T09:06:06.888Z,2.85
2022-12-25T09:08:33.717Z,2.92
2022-12-25T09:11:09.781Z,3.03
2022-12-25T09:13:37.074Z,2.78
2022-12-25T09:16:12.835Z,2.53
2022-12-25T09:18:39.245Z,3.00
2022-12-25T09:21:09.676Z,3.00
2022-12-25T09:23:36.095Z,2.67
2022-12-25T09:26:05.283Z,2.80
2022-12-25T09:28:32.153Z,3.00
2022-12-25T09:30:58.963Z,3.03
2022-12-25T09:33:25.686Z,3.17
2022-12-25T09:36:03.408Z,3.17
2022-12-25T09:38:30.849Z,2.80
2022-12-25T09:40:58.462Z,2.70
2022-12-25T09:43:27.066Z,2.55
2022-12-25T09:45:53.996Z,2.88
2022-12-25T09:48:20.641Z,2.22
2022-12-25T09:50:53.816Z,2.67
2022-12-25T09:53:27.008Z,3.33
2022-12-25T09:56:09.053Z,3.40
2022-12-25T09:58:35.505Z,3.15
2022-12-25T10:01:33.215Z,2.60
2022-12-25T10:04:21.918Z,2.88
2022-12-25T10:06:50.992Z,2.72
2022-12-25T10:09:23.318Z,2.60
2022-12-25T10:12:40.525Z,2.50
2022-12-25T10:15:24.739Z,2.75
2022-12-25T10:18:15.760Z,2.67
2022-12-25T10:20:47.848Z,2.40
2022-12-25T10:23:20.009Z,2.47
2022-12-25T10:25:46.635Z,2.10
2022-12-25T10:28:19.315Z,2.28
2022-12-25T10:30:45.778Z,2.17
2022-12-25T10:33:17.049Z,2.88
2022-12-25T10:35:44.367Z,2.63
2022-12-25T10:38:16.917Z,3.35
2022-12-25T10:41:05.230Z,2.35
2022-12-25T10:43:46.907Z,2.25
2022-12-25T10:46:15.586Z,2.67
2022-12-25T10:48:47.259Z,3.30
2022-12-25T10:51:13.738Z,2.17
2022-12-25T10:53:43.183Z,2.20
2022-12-25T10:56:19.495Z,2.35
2022-12-25T10:58:46.043Z,2.80
2022-12-25T11:01:13.329Z,2.45
2022-12-25T11:03:44.013Z,2.47
2022-12-25T11:06:26.102Z,2.60
2022-12-25T11:09:00.418Z,2.35
2022-12-25T11:11:28.539Z,2.78
2022-12-25T11:13:58.993Z,2.30
2022-12-25T11:16:29.728Z,2.45
2022-12-25T11:18:57.480Z,2.70
2022-12-25T11:21:29.439Z,2.72
2022-12-25T11:24:01.350Z,2.78
2022-12-25T11:26:36.736Z,2.70
2022-12-25T11:29:05.606Z,2.42
2022-12-25T11:31:39.378Z,2.38
2022-12-25T11:34:29.999Z,2.72
2022-12-25T11:36:58.625Z,3.08
2022-12-25T11:39:27.581Z,3.58
2022-12-25T11:42:08.208Z,3.45
2022-12-25T11:44:43.616Z,3.97
2022-12-25T11:47:26.652Z,4.00
2022-12-25T11:50:07.380Z,4.38
2022-12-25T11:52:37.122Z,4.55
2022-12-25T11:55:15.665Z,4.07
2022-12-25T11:57:45.440Z,3.10
2022-12-25T12:00:15.425Z,3.03
2022-12-25T12:03:00.468Z,3.42
2022-12-25T12:05:35.285Z,3.15
2022-12-25T12:08:04.299Z,2.75
2022-12-25T12:11:00.716Z,3.35
2022-12-25T12:13:37.954Z,3.20
2022-12-25T12:16:05.893Z,3.17
2022-12-25T12:18:34.021Z,3.10
2022-12-25T12:21:10.439Z,2.95
2022-12-25T12:23:52.103Z,2.83
2022-12-25T12:26:24.951Z,3.28
2022-12-25T12:28:54.573Z,3.30
2022-12-25T12:31:21.593Z,3.13
2022-12-25T12:33:59.592Z,3.30
2022-12-25T12:36:35.786Z,2.83
2022-12-25T12:39:04.909Z,3.53
2022-12-25T12:41:45.875Z,3.10
2022-12-25T12:44:14.214Z,3.45
2022-12-25T12:46:54.121Z,2.95
2022-12-25T12:49:27.589Z,3.50
2022-12-25T12:52:31.328Z,3.30
2022-12-25T12:57:40.082Z,2.75
2022-12-25T13:00:18.978Z,2.72
2022-12-25T13:03:22.803Z,3.08
2022-12-25T13:06:13.766Z,2.60
2022-12-25T13:08:40.084Z,2.90
2022-12-25T13:11:20.605Z,2.67
2022-12-25T13:13:49.561Z,2.70
2022-12-25T13:16:26.359Z,2.67
2022-12-25T13:18:54.467Z,3.25
2022-12-25T13:21:24.319Z,2.72
2022-12-25T13:23:59.786Z,3.40
2022-12-25T13:26:27.049Z,3.50
2022-12-25T13:28:55.832Z,3.47
2022-12-25T13:31:27.314Z,4.28
2022-12-25T13:34:03.455Z,3.78
2022-12-25T13:36:37.261Z,3.90
2022-12-25T13:39:08.478Z,3.53
2022-12-25T13:42:04.890Z,3.22
2022-12-25T13:44:41.869Z,3.58
2022-12-25T13:47:31.060Z,3.33
2022-12-25T13:49:59.929Z,2.90
2022-12-25T13:52:35.451Z,3.05
2022-12-25T13:55:13.130Z,3.33
2022-12-25T13:57:45.617Z,3.20
2022-12-25T14:00:32.290Z,3.72
2022-12-25T14:02:59.557Z,3.03
2022-12-25T14:05:39.721Z,3.40
2022-12-25T14:08:19.295Z,3.35
2022-12-25T14:10:49.383Z,3.47
2022-12-25T14:13:16.834Z,3.92
2022-12-25T14:15:44.954Z,3.28
2022-12-25T14:18:19.410Z,3.80
2022-12-25T14:21:06.013Z,3.60
2022-12-25T14:23:49.083Z,3.20
2022-12-25T14:26:26.400Z,3.08
2022-12-25T14:29:05.130Z,3.30
2022-12-25T14:31:32.642Z,2.83
2022-12-25T14:34:01.435Z,2.97
2022-12-25T14:36:29.193Z,3.03
2022-12-25T14:39:01.542Z,3.15
2022-12-25T14:41:41.962Z,2.83
2022-12-25T14:44:30.042Z,3.53
2022-12-25T14:47:05.000Z,2.92
2022-12-25T14:49:32.637Z,3.17
2022-12-25T14:51:59.274Z,3.60
2022-12-25T14:54:26.758Z,3.20
2022-12-25T14:56:56.190Z,3.60
2022-12-25T14:59:27.033Z,3.50
2022-12-25T15:01:59.402Z,3.70
2022-12-25T15:04:27.365Z,3.80
2022-12-25T15:07:07.296Z,3.03
2022-12-25T15:09:35.965Z,4.10
2022-12-25T15:12:02.855Z,4.20
2022-12-25T15:14:31.455Z,3.85
2022-12-25T15:17:00.827Z,4.00
2022-12-25T15:19:38.164Z,4.07
2022-12-25T15:22:05.601Z,4.15
2022-12-25T15:24:32.209Z,4.00
2022-12-25T15:27:00.312Z,3.88
2022-12-25T15:30:00.166Z,3.80
2022-12-25T15:32:19.519Z,3.47
2022-12-25T15:34:47.200Z,4.07
2022-12-25T15:37:14.353Z,3.88
2022-12-25T15:39:40.984Z,3.97
2022-12-25T15:42:15.983Z,3.95
2022-12-25T15:44:43.713Z,4.32
2022-12-25T15:47:14.309Z,4.70
2022-12-25T15:49:41.668Z,4.82
2022-12-25T15:52:12.086Z,4.70
2022-12-25T15:54:38.593Z,4.82
2022-12-25T15:57:10.972Z,4.05
2022-12-25T15:59:37.408Z,4.10
2022-12-25T16:02:17.573Z,3.70
2022-12-25T16:04:44.477Z,3.95
2022-12-25T16:07:16.184Z,3.90
2022-12-25T16:09:43.467Z,4.40
2022-12-25T16:12:10.059Z,4.75
2022-12-25T16:14:37.009Z,5.18
2022-12-25T16:17:04.637Z,5.35
2022-12-25T16:19:31.336Z,4.68
2022-12-25T16:21:57.864Z,4.65
2022-12-25T16:24:24.672Z,5.90
2022-12-25T16:26:51.182Z,5.10
2022-12-25T16:29:17.658Z,5.75
2022-12-25T16:31:44.266Z,6.78
2022-12-25T16:34:10.804Z,5.65
2022-12-25T16:36:37.323Z,5.03
2022-12-25T16:39:04.928Z,6.40
2022-12-25T16:41:32.224Z,5.25
2022-12-25T16:43:58.721Z,6.10
2022-12-25T16:46:25.266Z,5.68
2022-12-25T16:48:51.886Z,5.95
2022-12-25T16:51:20.501Z,6.05
2022-12-25T16:53:47.457Z,5.40
2022-12-25T16:56:17.529Z,5.47
2022-12-25T16:58:46.775Z,5.68
2022-12-25T17:01:16.497Z,5.57
2022-12-25T17:03:43.412Z,5.80
2022-12-25T17:06:20.675Z,5.60
2022-12-25T17:08:47.607Z,5.70
2022-12-25T17:11:14.594Z,5.40
2022-12-25T17:13:41.133Z,6.07
2022-12-25T17:16:20.269Z,5.40
2022-12-25T17:18:46.836Z,5.88
2022-12-25T17:21:14.772Z,4.78
2022-12-25T17:23:42.798Z,6.25
2022-12-25T17:26:09.409Z,5.63
2022-12-25T17:28:36.035Z,6.05
2022-12-25T17:31:08.623Z,6.07
2022-12-25T17:33:36.340Z,6.47
2022-12-25T17:36:04.670Z,6.18
2022-12-25T17:38:32.943Z,6.90
2022-12-25T17:41:02.272Z,7.13
2022-12-25T17:43:29.033Z,7.15
2022-12-25T17:45:55.559Z,6.00
2022-12-25T17:48:22.078Z,6.00
2022-12-25T17:50:48.733Z,5.47
2022-12-25T17:53:15.334Z,5.18
2022-12-25T17:55:42.212Z,5.10
2022-12-25T17:58:09.135Z,5.72
2022-12-25T18:00:36.331Z,7.70
2022-12-25T18:03:10.551Z,6.82
2022-12-25T18:05:38.003Z,6.32
2022-12-25T18:08:05.350Z,6.18
2022-12-25T18:10:43.918Z,6.13
2022-12-25T18:13:12.207Z,7.00
2022-12-25T18:15:40.190Z,7.05
2022-12-25T18:18:08.309Z,5.70
2022-12-25T18:20:39.915Z,5.30
2022-12-25T18:23:07.756Z,5.93
2022-12-25T18:25:34.663Z,5.40
2022-12-25T18:28:02.615Z,6.72
2022-12-25T18:30:29.487Z,6.25
2022-12-25T18:32:56.019Z,7.03
2022-12-25T18:35:22.817Z,6.45
2022-12-25T18:37:49.321Z,7.00
2022-12-25T18:40:15.880Z,6.72
2022-12-25T18:42:43.253Z,6.68
2022-12-25T18:45:12.268Z,8.05
2022-12-25T18:47:38.897Z,7.57
2022-12-25T18:50:07.219Z,6.80
2022-12-25T18:52:49.609Z,6.45
2022-12-25T18:55:18.238Z,5.75
2022-12-25T18:57:44.749Z,6.15
2022-12-25T19:00:11.852Z,5.32
2022-12-25T19:02:38.495Z,5.88
2022-12-25T19:05:06.000Z,5.70
2022-12-25T19:07:32.635Z,6.90
2022-12-25T19:09:59.201Z,6.65
2022-12-25T19:12:25.735Z,6.80
2022-12-25T19:14:52.903Z,5.85
2022-12-25T19:17:19.631Z,5.43
2022-12-25T19:19:46.206Z,5.32
2022-12-25T19:22:12.755Z,5.35
2022-12-25T19:24:39.320Z,5.68
2022-12-25T19:27:06.046Z,5.85
2022-12-25T19:29:32.888Z,5.15
2022-12-25T19:32:00.636Z,5.80
2022-12-25T19:34:27.198Z,4.60
2022-12-25T19:36:53.879Z,6.53
2022-12-25T19:39:20.439Z,6.40
2022-12-25T19:41:47.379Z,6.90
2022-12-25T19:44:14.005Z,6.95
2022-12-25T19:46:41.528Z,6.38
2022-12-25T19:49:14.581Z,5.90
2022-12-25T19:54:06.519Z,4.70
2022-12-25T19:56:33.741Z,4.50
2022-12-25T19:59:00.770Z,5.30
2022-12-25T20:01:29.096Z,5.68
2022-12-25T20:03:56.491Z,5.30
2022-12-25T20:06:27.203Z,4.55
2022-12-25T20:08:56.568Z,5.20
2022-12-25T20:11:25.559Z,4.18
2022-12-25T20:13:52.825Z,3.92
2022-12-25T20:16:19.527Z,4.38
2022-12-25T20:18:46.118Z,4.72
2022-12-25T20:21:14.967Z,5.03
2022-12-25T20:23:43.056Z,5.03
2022-12-25T20:26:10.917Z,6.10
2022-12-25T20:28:38.638Z,5.45
2022-12-25T20:31:29.110Z,5.40
2022-12-25T20:34:03.328Z,6.38
2022-12-25T20:36:36.124Z,6.80
2022-12-25T20:39:04.522Z,6.45
2022-12-25T20:41:30.834Z,7.63
2022-12-25T20:43:57.527Z,7.93
2022-12-25T20:46:25.241Z,7.80
2022-12-25T20:48:52.667Z,8.48
2022-12-25T20:51:21.795Z,8.10
2022-12-25T20:53:48.980Z,8.18
2022-12-25T20:56:17.686Z,8.52
2022-12-25T20:58:44.447Z,9.18
2022-12-25T21:01:17.418Z,8.07
2022-12-25T21:03:44.584Z,9.38
2022-12-25T21:06:11.826Z,8.07
2022-12-25T21:08:39.144Z,8.38
2022-12-25T21:11:05.916Z,8.10
2022-12-25T21:13:35.856Z,8.43
2022-12-25T21:16:06.415Z,9.57
2022-12-25T21:18:32.793Z,8.82
2022-12-25T21:21:00.856Z,8.63
2022-12-25T21:23:28.838Z,8.90
2022-12-25T21:25:55.252Z,7.78
2022-12-25T21:28:22.519Z,8.98
2022-12-25T21:30:48.931Z,8.43
2022-12-25T21:33:34.417Z,8.15
2022-12-25T21:36:08.393Z,9.73
2022-12-25T21:38:35.317Z,9.18
2022-12-25T21:41:06.859Z,7.57
2022-12-25T21:43:34.453Z,8.52
2022-12-25T21:46:03.189Z,8.80
2022-12-25T21:48:29.986Z,8.07
2022-12-25T21:51:22.877Z,8.90
2022-12-25T21:53:49.503Z,9.30
2022-12-25T21:56:15.919Z,8.07
2022-12-25T21:58:42.729Z,9.45
2022-12-25T22:01:10.945Z,8.90
2022-12-25T22:03:37.737Z,7.90
2022-12-25T22:06:23.054Z,8.82
2022-12-25T22:08:49.434Z,8.27
2022-12-25T22:11:34.255Z,8.32
2022-12-25T22:14:19.038Z,7.50
2022-12-25T22:17:24.499Z,6.72
2022-12-25T22:19:51.019Z,6.65
2022-12-25T22:22:22.685Z,7.18
2022-12-25T22:24:50.305Z,6.70
2022-12-25T22:27:16.833Z,7.18
2022-12-25T22:29:43.382Z,7.25
2022-12-25T22:32:11.165Z,7.38
2022-12-25T22:34:37.616Z,6.68
2022-12-25T22:37:04.627Z,6.32
2022-12-25T22:39:32.491Z,7.07
2022-12-25T22:42:00.343Z,6.22
2022-12-25T22:44:28.985Z,6.00
2022-12-25T22:46:55.708Z,6.03
2022-12-25T22:49:22.060Z,5.97
2022-12-25T22:51:49.416Z,6.35
2022-12-25T22:54:17.620Z,6.45
2022-12-25T22:56:45.998Z,5.20
2022-12-25T22:59:14.805Z,4.20
2022-12-25T23:01:41.313Z,4.40
2022-12-25T23:04:08.812Z,4.80
2022-12-25T23:06:35.465Z,4.43
2022-12-25T23:09:03.090Z,3.97
2022-12-25T23:11:29.484Z,3.72
2022-12-25T23:14:14.266Z,3.35
2022-12-25T23:16:41.021Z,2.80
2022-12-25T23:19:27.032Z,2.30
2022-12-25T23:22:11.693Z,3.40
2022-12-25T23:24:56.524Z,2.90
2022-12-25T23:27:22.868Z,2.88
2022-12-25T23:29:49.783Z,3.20
2022-12-25T23:32:25.043Z,2.60
2022-12-25T23:34:52.627Z,3.97
2022-12-25T23:37:19.288Z,3.60
2022-12-25T23:39:45.873Z,3.67
2022-12-25T23:42:12.241Z,4.68
2022-12-25T23:44:38.602Z,4.28
2022-12-25T23:47:05.127Z,7.22
2022-12-25T23:49:31.533Z,6.43
2022-12-25T23:51:57.870Z,7.38
2022-12-25T23:54:27.304Z,10.90
2022-12-25T23:56:54.036Z,9.35
2022-12-25T23:59:20.406Z,9.90
